sensor_id;sensor_type;location;lat;lon;timestamp;pressure;altitude;pressure_sealevel;temperature;humidity
2401;BME280;1211;43.200;27.914;2023-03-20T00:20:44;98867.84;;;-7.31;nan
2401;BME280;1211;43.200;27.914;2023-03-20T00:23:11;98944.94;;;-6.76;nan
2401;BME280;1211;43.200;27.914;2023-03-20T00:25:38;98671.81;;;-8.46;nan
2401;BME280;1211;43.200;27.914;2023-03-20T00:28:10;99825.44;;;-1.71;nan
2401;BME280;1211;43.200;27.914;2023-03-20T00:30:49;100383.53;;;1.47;nan
2401;BME280;1211;43.200;27.914;2023-03-20T00:33:16;100285.22;;;1.01;nan
2401;BME280;1211;43.200;27.914;2023-03-20T00:35:44;100315.78;;;1.27;nan
2401;BME280;1211;43.200;27.914;2023-03-20T00:38:10;100355.63;;;1.36;nan
2401;BME280;1211;43.200;27.914;2023-03-20T00:40:37;100111.00;;;-0.40;nan
2401;BME280;1211;43.200;27.914;2023-03-20T00:43:04;100202.97;;;0.41;nan
2401;BME280;1211;43.200;27.914;2023-03-20T00:45:31;100201.31;;;0.55;nan
2401;BME280;1211;43.200;27.914;2023-03-20T00:47:59;100108.03;;;-0.08;nan
2401;BME280;1211;43.200;27.914;2023-03-20T00:50:28;99902.41;;;-1.33;nan
2401;BME280;1211;43.200;27.914;2023-03-20T00:52:57;100039.59;;;-0.34;nan
2401;BME280;1211;43.200;27.914;2023-03-20T00:55:24;99998.50;;;-0.46;nan
2401;BME280;1211;43.200;27.914;2023-03-20T00:57:52;99381.94;;;-4.42;nan
2401;BME280;1211;43.200;27.914;2023-03-20T01:03:12;99788.94;;;-2.29;nan
2401;BME280;1211;43.200;27.914;2023-03-20T01:05:39;99648.03;;;-3.22;nan
2401;BME280;1211;43.200;27.914;2023-03-20T01:08:13;99857.03;;;-1.61;nan
2401;BME280;1211;43.200;27.914;2023-03-20T01:10:40;98991.06;;;-7.00;nan
2401;BME280;1211;43.200;27.914;2023-03-20T01:13:14;98890.06;;;-7.62;nan
2401;BME280;1211;43.200;27.914;2023-03-20T01:15:42;98766.28;;;-8.47;nan
2401;BME280;1211;43.200;27.914;2023-03-20T01:18:10;98591.34;;;-9.60;nan
2401;BME280;1211;43.200;27.914;2023-03-20T01:20:38;98953.00;;;-7.44;nan
2401;BME280;1211;43.200;27.914;2023-03-20T01:23:04;98952.03;;;-7.33;nan
2401;BME280;1211;43.200;27.914;2023-03-20T01:25:33;98447.72;;;-10.52;nan
2401;BME280;1211;43.200;27.914;2023-03-20T01:27:59;98759.69;;;-8.66;nan
2401;BME280;1211;43.200;27.914;2023-03-20T01:30:27;98926.75;;;-7.53;nan
2401;BME280;1211;43.200;27.914;2023-03-20T01:32:54;98950.25;;;-7.55;nan
2401;BME280;1211;43.200;27.914;2023-03-20T01:35:22;98942.94;;;-7.37;nan
2401;BME280;1211;43.200;27.914;2023-03-20T01:37:49;98929.47;;;-7.47;nan
2401;BME280;1211;43.200;27.914;2023-03-20T01:40:25;99017.97;;;-7.12;nan
2401;BME280;1211;43.200;27.914;2023-03-20T01:42:54;99112.34;;;-6.53;nan
2401;BME280;1211;43.200;27.914;2023-03-20T01:45:23;98886.88;;;-7.91;nan
2401;BME280;1211;43.200;27.914;2023-03-20T01:47:51;99612.50;;;-3.35;nan
2401;BME280;1211;43.200;27.914;2023-03-20T01:50:19;98835.56;;;-8.25;nan
2401;BME280;1211;43.200;27.914;2023-03-20T01:52:47;98833.94;;;-7.99;nan
2401;BME280;1211;43.200;27.914;2023-03-20T01:55:15;98833.47;;;-8.77;nan
2401;BME280;1211;43.200;27.914;2023-03-20T01:57:42;98909.50;;;-7.72;nan
2401;BME280;1211;43.200;27.914;2023-03-20T02:00:12;98896.94;;;-7.39;nan
2401;BME280;1211;43.200;27.914;2023-03-20T02:02:40;98884.31;;;-8.08;nan
2401;BME280;1211;43.200;27.914;2023-03-20T02:05:10;98493.84;;;-10.20;nan
2401;BME280;1211;43.200;27.914;2023-03-20T02:07:39;98481.00;;;-10.50;nan
2401;BME280;1211;43.200;27.914;2023-03-20T02:10:07;99835.34;;;-2.12;nan
2401;BME280;1211;43.200;27.914;2023-03-20T02:12:35;99710.41;;;-2.73;nan
2401;BME280;1211;43.200;27.914;2023-03-20T02:15:02;99493.78;;;-4.26;nan
2401;BME280;1211;43.200;27.914;2023-03-20T02:17:30;99862.28;;;-2.22;nan
2401;BME280;1211;43.200;27.914;2023-03-20T02:20:00;99747.06;;;-2.77;nan
2401;BME280;1211;43.200;27.914;2023-03-20T02:22:34;99730.00;;;-2.98;nan
2401;BME280;1211;43.200;27.914;2023-03-20T02:25:13;99745.78;;;-2.55;nan
2401;BME280;1211;43.200;27.914;2023-03-20T02:27:45;99785.41;;;-2.40;nan
2401;BME280;1211;43.200;27.914;2023-03-20T02:36:06;99278.31;;;-5.52;nan
2401;BME280;1211;43.200;27.914;2023-03-20T02:38:44;99358.31;;;-4.45;nan
2401;BME280;1211;43.200;27.914;2023-03-20T02:41:14;99208.94;;;-5.44;nan
2401;BME280;1211;43.200;27.914;2023-03-20T02:43:49;99154.34;;;-5.69;nan
2401;BME280;1211;43.200;27.914;2023-03-20T02:46:19;99303.88;;;-4.92;nan
2401;BME280;1211;43.200;27.914;2023-03-20T02:48:49;97975.63;;;-13.15;nan
2401;BME280;1211;43.200;27.914;2023-03-20T03:03:37;98833.59;;;-7.39;nan
2401;BME280;1211;43.200;27.914;2023-03-20T03:06:06;98200.06;;;-11.95;nan
2401;BME280;1211;43.200;27.914;2023-03-20T03:08:35;98536.59;;;-9.19;nan
2401;BME280;1211;43.200;27.914;2023-03-20T03:11:03;98607.97;;;-8.57;nan
2401;BME280;1211;43.200;27.914;2023-03-20T03:13:31;98324.69;;;-10.11;nan
2401;BME280;1211;43.200;27.914;2023-03-20T03:16:00;98776.06;;;-7.46;nan
2401;BME280;1211;43.200;27.914;2023-03-20T03:18:29;98787.97;;;-7.64;nan
2401;BME280;1211;43.200;27.914;2023-03-20T03:21:01;98710.41;;;-8.21;nan
2401;BME280;1211;43.200;27.914;2023-03-20T03:23:30;98707.88;;;-8.06;nan
2401;BME280;1211;43.200;27.914;2023-03-20T03:25:58;98696.56;;;-8.18;nan
2401;BME280;1211;43.200;27.914;2023-03-20T03:28:27;98798.91;;;-7.24;nan
2401;BME280;1211;43.200;27.914;2023-03-20T03:31:01;98954.03;;;-6.19;nan
2401;BME280;1211;43.200;27.914;2023-03-20T03:33:29;99040.72;;;-5.68;nan
2401;BME280;1211;43.200;27.914;2023-03-20T03:36:00;99003.41;;;-5.95;nan
2401;BME280;1211;43.200;27.914;2023-03-20T03:38:33;98634.63;;;-8.20;nan
2401;BME280;1211;43.200;27.914;2023-03-20T03:41:05;98552.81;;;-8.52;nan
2401;BME280;1211;43.200;27.914;2023-03-20T03:43:37;98636.81;;;-8.12;nan
2401;BME280;1211;43.200;27.914;2023-03-20T03:46:08;98751.38;;;-7.64;nan
2401;BME280;1211;43.200;27.914;2023-03-20T03:48:37;98691.44;;;-7.83;nan
2401;BME280;1211;43.200;27.914;2023-03-20T03:51:06;98646.97;;;-8.09;nan
2401;BME280;1211;43.200;27.914;2023-03-20T03:53:36;98724.03;;;-7.81;nan
2401;BME280;1211;43.200;27.914;2023-03-20T03:56:06;99304.22;;;-4.74;nan
2401;BME280;1211;43.200;27.914;2023-03-20T03:58:35;99312.03;;;-4.67;nan
2401;BME280;1211;43.200;27.914;2023-03-20T04:01:03;99341.66;;;-4.32;nan
2401;BME280;1211;43.200;27.914;2023-03-20T04:03:31;98994.41;;;-6.36;nan
2401;BME280;1211;43.200;27.914;2023-03-20T04:06:00;99250.00;;;-5.38;nan
2401;BME280;1211;43.200;27.914;2023-03-20T04:08:28;99149.41;;;-5.98;nan
2401;BME280;1211;43.200;27.914;2023-03-20T04:10:56;99253.84;;;-5.19;nan
2401;BME280;1211;43.200;27.914;2023-03-20T04:13:23;99225.72;;;-5.06;nan
2401;BME280;1211;43.200;27.914;2023-03-20T04:15:49;99221.13;;;-5.16;nan
2401;BME280;1211;43.200;27.914;2023-03-20T04:18:17;98886.03;;;-6.86;nan
2401;BME280;1211;43.200;27.914;2023-03-20T04:20:44;99348.19;;;-4.07;nan
2401;BME280;1211;43.200;27.914;2023-03-20T04:23:11;99314.25;;;-4.44;nan
2401;BME280;1211;43.200;27.914;2023-03-20T04:25:38;99328.28;;;-4.22;nan
2401;BME280;1211;43.200;27.914;2023-03-20T04:28:06;99122.22;;;-5.64;nan
2401;BME280;1211;43.200;27.914;2023-03-20T04:30:32;98896.06;;;-7.08;nan
2401;BME280;1211;43.200;27.914;2023-03-20T04:32:59;98691.78;;;-8.11;nan
2401;BME280;1211;43.200;27.914;2023-03-20T04:35:26;99133.50;;;-5.57;nan
2401;BME280;1211;43.200;27.914;2023-03-20T04:37:52;99106.59;;;-5.83;nan
2401;BME280;1211;43.200;27.914;2023-03-20T04:40:19;99115.72;;;-5.89;nan
2401;BME280;1211;43.200;27.914;2023-03-20T04:42:46;99256.03;;;-5.06;nan
2401;BME280;1211;43.200;27.914;2023-03-20T04:45:14;99303.59;;;-4.96;nan
2401;BME280;1211;43.200;27.914;2023-03-20T04:47:41;99308.41;;;-4.98;nan
2401;BME280;1211;43.200;27.914;2023-03-20T04:50:08;99300.03;;;-5.07;nan
2401;BME280;1211;43.200;27.914;2023-03-20T04:52:35;99252.53;;;-5.58;nan
2401;BME280;1211;43.200;27.914;2023-03-20T04:55:02;99487.50;;;-3.89;nan
2401;BME280;1211;43.200;27.914;2023-03-20T04:57:29;99538.00;;;-3.96;nan
2401;BME280;1211;43.200;27.914;2023-03-20T04:59:57;99466.81;;;-4.46;nan
2401;BME280;1211;43.200;27.914;2023-03-20T05:02:25;99514.84;;;-4.02;nan
2401;BME280;1211;43.200;27.914;2023-03-20T05:04:52;99382.31;;;-4.80;nan
2401;BME280;1211;43.200;27.914;2023-03-20T05:07:18;99529.47;;;-3.78;nan
2401;BME280;1211;43.200;27.914;2023-03-20T05:09:45;99365.31;;;-4.96;nan
2401;BME280;1211;43.200;27.914;2023-03-20T05:12:12;99278.28;;;-5.57;nan
2401;BME280;1211;43.200;27.914;2023-03-20T05:14:39;99054.41;;;-7.06;nan
2401;BME280;1211;43.200;27.914;2023-03-20T05:17:05;98808.72;;;-8.13;nan
2401;BME280;1211;43.200;27.914;2023-03-20T05:19:33;99180.94;;;-6.10;nan
2401;BME280;1211;43.200;27.914;2023-03-20T05:22:00;99153.22;;;-5.94;nan
2401;BME280;1211;43.200;27.914;2023-03-20T05:24:27;99147.53;;;-5.97;nan
2401;BME280;1211;43.200;27.914;2023-03-20T05:26:54;99008.28;;;-6.86;nan
2401;BME280;1211;43.200;27.914;2023-03-20T05:29:20;98982.81;;;-6.94;nan
2401;BME280;1211;43.200;27.914;2023-03-20T05:31:47;98990.50;;;-6.66;nan
2401;BME280;1211;43.200;27.914;2023-03-20T05:34:14;99283.41;;;-5.09;nan
2401;BME280;1211;43.200;27.914;2023-03-20T05:36:42;99276.53;;;-4.84;nan
2401;BME280;1211;43.200;27.914;2023-03-20T05:39:09;98989.44;;;-6.64;nan
2401;BME280;1211;43.200;27.914;2023-03-20T05:41:35;99044.16;;;-5.93;nan
2401;BME280;1211;43.200;27.914;2023-03-20T05:44:02;99169.66;;;-4.92;nan
2401;BME280;1211;43.200;27.914;2023-03-20T05:46:29;99003.66;;;-6.02;nan
2401;BME280;1211;43.200;27.914;2023-03-20T05:48:55;99166.47;;;-4.84;nan
2401;BME280;1211;43.200;27.914;2023-03-20T05:51:22;98794.97;;;-7.11;nan
2401;BME280;1211;43.200;27.914;2023-03-20T05:53:50;99063.56;;;-5.41;nan
2401;BME280;1211;43.200;27.914;2023-03-20T05:56:17;99096.66;;;-4.89;nan
2401;BME280;1211;43.200;27.914;2023-03-20T05:58:43;99183.72;;;-4.45;nan
2401;BME280;1211;43.200;27.914;2023-03-20T06:01:10;98707.75;;;-7.27;nan
2401;BME280;1211;43.200;27.914;2023-03-20T06:03:40;98891.94;;;-6.06;nan
2401;BME280;1211;43.200;27.914;2023-03-20T06:06:07;98787.66;;;-6.63;nan
2401;BME280;1211;43.200;27.914;2023-03-20T06:08:34;98737.56;;;-6.83;nan
2401;BME280;1211;43.200;27.914;2023-03-20T06:11:03;98735.66;;;-6.93;nan
2401;BME280;1211;43.200;27.914;2023-03-20T06:13:29;98977.50;;;-5.44;nan
2401;BME280;1211;43.200;27.914;2023-03-20T06:15:56;30709.84;;;19.20;100.00
2401;BME280;1211;43.200;27.914;2023-03-20T06:18:23;98696.34;;;-6.87;nan
2401;BME280;1211;43.200;27.914;2023-03-20T06:20:51;98662.75;;;-7.45;nan
2401;BME280;1211;43.200;27.914;2023-03-20T06:23:17;98898.09;;;-6.01;nan
2401;BME280;1211;43.200;27.914;2023-03-20T06:25:44;98867.03;;;-6.12;nan
2401;BME280;1211;43.200;27.914;2023-03-20T06:28:12;98805.91;;;-6.40;nan
2401;BME280;1211;43.200;27.914;2023-03-20T06:30:39;98943.16;;;-5.57;nan
2401;BME280;1211;43.200;27.914;2023-03-20T06:33:06;97734.19;;;-13.44;nan
2401;BME280;1211;43.200;27.914;2023-03-20T06:35:33;97758.91;;;-13.33;nan
2401;BME280;1211;43.200;27.914;2023-03-20T06:38:00;99035.44;;;-5.38;nan
2401;BME280;1211;43.200;27.914;2023-03-20T06:40:26;99161.66;;;-4.42;nan
2401;BME280;1211;43.200;27.914;2023-03-20T06:42:53;99094.78;;;-4.53;nan
2401;BME280;1211;43.200;27.914;2023-03-20T06:45:22;99116.56;;;-4.45;nan
2401;BME280;1211;43.200;27.914;2023-03-20T06:47:48;98993.63;;;-5.14;nan
2401;BME280;1211;43.200;27.914;2023-03-20T06:50:15;98561.41;;;-8.40;nan
2401;BME280;1211;43.200;27.914;2023-03-20T06:52:43;99057.19;;;-5.14;nan
2401;BME280;1211;43.200;27.914;2023-03-20T06:55:10;99036.50;;;-5.29;nan
2401;BME280;1211;43.200;27.914;2023-03-20T06:57:37;98908.84;;;-5.91;nan
2401;BME280;1211;43.200;27.914;2023-03-20T07:00:04;99191.75;;;-4.15;nan
2401;BME280;1211;43.200;27.914;2023-03-20T07:02:33;98435.72;;;-9.05;nan
2401;BME280;1211;43.200;27.914;2023-03-20T07:05:00;98632.53;;;-8.13;nan
2401;BME280;1211;43.200;27.914;2023-03-20T07:07:27;99149.56;;;-4.70;nan
2401;BME280;1211;43.200;27.914;2023-03-20T07:09:54;99289.59;;;-3.55;nan
2401;BME280;1211;43.200;27.914;2023-03-20T07:12:21;99290.16;;;-3.88;nan
2401;BME280;1211;43.200;27.914;2023-03-20T07:14:52;99251.16;;;-3.81;nan
2401;BME280;1211;43.200;27.914;2023-03-20T07:17:19;99247.63;;;-3.61;nan
2401;BME280;1211;43.200;27.914;2023-03-20T07:19:48;98749.94;;;-6.27;nan
2401;BME280;1211;43.200;27.914;2023-03-20T07:22:17;98284.19;;;-9.39;nan
2401;BME280;1211;43.200;27.914;2023-03-20T07:24:45;98240.47;;;-9.90;nan
2401;BME280;1211;43.200;27.914;2023-03-20T07:27:12;98047.69;;;-10.81;nan
2401;BME280;1211;43.200;27.914;2023-03-20T07:29:39;98444.75;;;-8.59;nan
2401;BME280;1211;43.200;27.914;2023-03-20T07:32:06;98415.94;;;-8.57;nan
2401;BME280;1211;43.200;27.914;2023-03-20T07:34:33;97524.88;;;-14.11;nan
2401;BME280;1211;43.200;27.914;2023-03-20T07:37:02;98208.34;;;-9.78;nan
2401;BME280;1211;43.200;27.914;2023-03-20T07:39:29;98311.97;;;-9.20;nan
2401;BME280;1211;43.200;27.914;2023-03-20T07:41:56;98051.09;;;-10.44;nan
2401;BME280;1211;43.200;27.914;2023-03-20T07:44:22;98379.22;;;-8.35;nan
2401;BME280;1211;43.200;27.914;2023-03-20T07:46:49;98503.38;;;-8.02;nan
2401;BME280;1211;43.200;27.914;2023-03-20T07:49:16;98361.13;;;-8.95;nan
2401;BME280;1211;43.200;27.914;2023-03-20T07:51:43;98093.41;;;-10.37;nan
2401;BME280;1211;43.200;27.914;2023-03-20T07:54:11;98645.00;;;-6.79;nan
2401;BME280;1211;43.200;27.914;2023-03-20T08:11:19;97737.00;;;-12.70;nan
2401;BME280;1211;43.200;27.914;2023-03-20T08:13:45;97613.13;;;-13.85;nan
2401;BME280;1211;43.200;27.914;2023-03-20T08:16:12;97367.31;;;-15.73;nan
2401;BME280;1211;43.200;27.914;2023-03-20T08:33:20;97957.50;;;-11.03;nan
2401;BME280;1211;43.200;27.914;2023-03-20T08:35:53;97951.00;;;-10.70;nan
2401;BME280;1211;43.200;27.914;2023-03-20T08:38:21;98755.91;;;-5.10;nan
2401;BME280;1211;43.200;27.914;2023-03-20T08:40:47;98503.78;;;-6.03;nan
2401;BME280;1211;43.200;27.914;2023-03-20T08:43:14;98471.59;;;-6.62;nan
2401;BME280;1211;43.200;27.914;2023-03-20T08:45:41;99099.81;;;-2.20;nan
2401;BME280;1211;43.200;27.914;2023-03-20T08:48:08;97132.44;;;-14.29;nan
2401;BME280;1211;43.200;27.914;2023-03-20T08:50:36;98604.53;;;-4.36;nan
2401;BME280;1211;43.200;27.914;2023-03-20T08:53:04;98528.16;;;-4.82;nan
2401;BME280;1211;43.200;27.914;2023-03-20T08:55:31;98262.41;;;-6.30;nan
2401;BME280;1211;43.200;27.914;2023-03-20T08:57:58;98947.28;;;-1.84;nan
2401;BME280;1211;43.200;27.914;2023-03-20T09:00:25;99489.66;;;2.04;nan
2401;BME280;1211;43.200;27.914;2023-03-20T09:02:52;98304.00;;;-4.99;nan
2401;BME280;1211;43.200;27.914;2023-03-20T09:05:19;98766.28;;;-1.82;nan
2401;BME280;1211;43.200;27.914;2023-03-20T09:07:47;98857.28;;;-0.36;nan
2401;BME280;1211;43.200;27.914;2023-03-20T09:10:15;99009.84;;;0.04;nan
2401;BME280;1211;43.200;27.914;2023-03-20T09:12:44;98837.06;;;-0.79;nan
2401;BME280;1211;43.200;27.914;2023-03-20T09:15:12;98683.50;;;-1.41;nan
2401;BME280;1211;43.200;27.914;2023-03-20T09:20:05;99369.38;;;2.75;nan
2401;BME280;1211;43.200;27.914;2023-03-20T09:22:32;98498.56;;;-2.29;nan
2401;BME280;1211;43.200;27.914;2023-03-20T09:25:00;98834.34;;;-0.25;nan
2401;BME280;1211;43.200;27.914;2023-03-20T09:27:27;98613.31;;;-0.77;nan
2401;BME280;1211;43.200;27.914;2023-03-20T09:29:54;99234.66;;;2.92;nan
2401;BME280;1211;43.200;27.914;2023-03-20T09:32:20;97619.41;;;-7.72;nan
2401;BME280;1211;43.200;27.914;2023-03-20T09:34:47;98078.50;;;-4.75;nan
2401;BME280;1211;43.200;27.914;2023-03-20T09:37:14;98855.03;;;1.44;nan
2401;BME280;1211;43.200;27.914;2023-03-20T09:39:41;99192.19;;;4.33;nan
2401;BME280;1211;43.200;27.914;2023-03-20T09:42:12;99179.44;;;4.63;nan
2401;BME280;1211;43.200;27.914;2023-03-20T09:44:45;99329.50;;;3.72;nan
2401;BME280;1211;43.200;27.914;2023-03-20T09:47:15;99388.75;;;3.05;nan
2401;BME280;1211;43.200;27.914;2023-03-20T09:49:44;98756.75;;;-0.52;nan
2401;BME280;1211;43.200;27.914;2023-03-20T09:52:23;98880.22;;;0.74;nan
2401;BME280;1211;43.200;27.914;2023-03-20T09:54:53;98797.69;;;0.50;nan
2401;BME280;1211;43.200;27.914;2023-03-20T09:57:23;98670.84;;;0.34;nan
2401;BME280;1211;43.200;27.914;2023-03-20T09:59:52;98472.03;;;-0.47;nan
2401;BME280;1211;43.200;27.914;2023-03-20T10:02:22;98509.25;;;0.69;nan
2401;BME280;1211;43.200;27.914;2023-03-20T10:04:51;97881.38;;;-2.94;nan
2401;BME280;1211;43.200;27.914;2023-03-20T10:07:18;99064.53;;;4.06;nan
2401;BME280;1211;43.200;27.914;2023-03-20T10:09:45;98224.59;;;-1.58;nan
2401;BME280;1211;43.200;27.914;2023-03-20T10:12:17;97997.34;;;-3.04;nan
2401;BME280;1211;43.200;27.914;2023-03-20T10:14:55;98049.13;;;-3.43;nan
2401;BME280;1211;43.200;27.914;2023-03-20T10:17:27;98530.63;;;-1.01;nan
2401;BME280;1211;43.200;27.914;2023-03-20T10:19:58;98596.28;;;-0.56;nan
2401;BME280;1211;43.200;27.914;2023-03-20T10:22:27;98686.59;;;0.72;nan
2401;BME280;1211;43.200;27.914;2023-03-20T10:25:00;98811.09;;;1.82;nan
2401;BME280;1211;43.200;27.914;2023-03-20T10:27:29;98831.94;;;3.10;nan
2401;BME280;1211;43.200;27.914;2023-03-20T10:30:05;98879.19;;;1.54;nan
2401;BME280;1211;43.200;27.914;2023-03-20T10:32:37;99104.63;;;2.37;nan
2401;BME280;1211;43.200;27.914;2023-03-20T10:35:12;99215.56;;;2.83;nan
2401;BME280;1211;43.200;27.914;2023-03-20T10:37:45;98999.31;;;1.86;nan
2401;BME280;1211;43.200;27.914;2023-03-20T10:40:20;99501.97;;;4.98;nan
2401;BME280;1211;43.200;27.914;2023-03-20T10:42:49;99358.88;;;3.53;nan
2401;BME280;1211;43.200;27.914;2023-03-20T10:45:21;98711.78;;;-1.38;nan
2401;BME280;1211;43.200;27.914;2023-03-20T10:47:51;99331.53;;;1.85;nan
2401;BME280;1211;43.200;27.914;2023-03-20T10:50:20;98957.41;;;0.27;nan
2401;BME280;1211;43.200;27.914;2023-03-20T10:52:48;99094.75;;;0.49;nan
2401;BME280;1211;43.200;27.914;2023-03-20T10:55:17;99182.50;;;1.75;nan
2401;BME280;1211;43.200;27.914;2023-03-20T10:57:47;99168.16;;;0.34;nan
2401;BME280;1211;43.200;27.914;2023-03-20T11:00:17;99169.09;;;0.11;nan
2401;BME280;1211;43.200;27.914;2023-03-20T11:02:47;98986.84;;;-1.55;nan
2401;BME280;1211;43.200;27.914;2023-03-20T11:05:19;99038.38;;;-1.33;nan
2401;BME280;1211;43.200;27.914;2023-03-20T11:07:46;99170.47;;;0.54;nan
2401;BME280;1211;43.200;27.914;2023-03-20T11:10:15;99268.00;;;0.95;nan
2401;BME280;1211;43.200;27.914;2023-03-20T11:12:44;99162.69;;;0.20;nan
2401;BME280;1211;43.200;27.914;2023-03-20T11:15:18;99173.81;;;-0.84;nan
2401;BME280;1211;43.200;27.914;2023-03-20T11:17:51;98940.56;;;-2.05;nan
2401;BME280;1211;43.200;27.914;2023-03-20T11:20:18;99281.84;;;0.34;nan
2401;BME280;1211;43.200;27.914;2023-03-20T11:22:45;99270.31;;;0.74;nan
2401;BME280;1211;43.200;27.914;2023-03-20T11:25:21;99244.44;;;0.04;nan
2401;BME280;1211;43.200;27.914;2023-03-20T11:27:48;99247.88;;;0.09;nan
2401;BME280;1211;43.200;27.914;2023-03-20T11:30:15;99248.56;;;-0.18;nan
2401;BME280;1211;43.200;27.914;2023-03-20T11:32:44;99266.94;;;0.18;nan
2401;BME280;1211;43.200;27.914;2023-03-20T11:35:21;99157.28;;;-1.01;nan
2401;BME280;1211;43.200;27.914;2023-03-20T11:37:52;99293.00;;;-0.43;nan
2401;BME280;1211;43.200;27.914;2023-03-20T11:40:21;99260.00;;;0.12;nan
2401;BME280;1211;43.200;27.914;2023-03-20T11:42:51;99190.25;;;0.09;nan
2401;BME280;1211;43.200;27.914;2023-03-20T11:45:18;99199.38;;;-0.20;nan
2401;BME280;1211;43.200;27.914;2023-03-20T11:47:48;99235.09;;;-0.60;nan
2401;BME280;1211;43.200;27.914;2023-03-20T11:50:28;99087.13;;;-0.87;nan
2401;BME280;1211;43.200;27.914;2023-03-20T11:52:56;99159.28;;;-0.88;nan
2401;BME280;1211;43.200;27.914;2023-03-20T11:55:24;99074.56;;;-0.78;nan
2401;BME280;1211;43.200;27.914;2023-03-20T11:57:54;98899.78;;;-1.98;nan
2401;BME280;1211;43.200;27.914;2023-03-20T12:00:22;98686.97;;;-2.65;nan
2401;BME280;1211;43.200;27.914;2023-03-20T12:02:49;98859.97;;;-2.07;nan
2401;BME280;1211;43.200;27.914;2023-03-20T12:05:17;98739.69;;;-2.40;nan
2401;BME280;1211;43.200;27.914;2023-03-20T12:07:47;98672.34;;;-2.96;nan
2401;BME280;1211;43.200;27.914;2023-03-20T12:10:16;97819.47;;;-8.43;nan
2401;BME280;1211;43.200;27.914;2023-03-20T12:12:46;98691.56;;;-3.50;nan
2401;BME280;1211;43.200;27.914;2023-03-20T12:15:15;98815.69;;;-2.19;nan
2401;BME280;1211;43.200;27.914;2023-03-20T12:17:45;98855.22;;;-2.33;nan
2401;BME280;1211;43.200;27.914;2023-03-20T12:20:15;98798.91;;;-2.54;nan
2401;BME280;1211;43.200;27.914;2023-03-20T12:22:48;99016.22;;;-1.73;nan
2401;BME280;1211;43.200;27.914;2023-03-20T12:25:20;99056.13;;;-1.27;nan
2401;BME280;1211;43.200;27.914;2023-03-20T12:27:49;98868.69;;;-2.33;nan
2401;BME280;1211;43.200;27.914;2023-03-20T12:30:19;98421.28;;;-5.67;nan
2401;BME280;1211;43.200;27.914;2023-03-20T12:32:50;98779.38;;;-2.08;nan
2401;BME280;1211;43.200;27.914;2023-03-20T12:35:21;98780.53;;;-2.52;nan
2401;BME280;1211;43.200;27.914;2023-03-20T12:37:51;98846.00;;;-2.51;nan
2401;BME280;1211;43.200;27.914;2023-03-20T12:40:18;98842.91;;;-2.63;nan
2401;BME280;1211;43.200;27.914;2023-03-20T12:42:53;98878.94;;;-2.54;nan
2401;BME280;1211;43.200;27.914;2023-03-20T12:45:24;98843.84;;;-2.73;nan
2401;BME280;1211;43.200;27.914;2023-03-20T12:48:00;98985.56;;;-1.39;nan
2401;BME280;1211;43.200;27.914;2023-03-20T12:50:32;98927.16;;;-1.16;nan
2401;BME280;1211;43.200;27.914;2023-03-20T12:53:08;98773.22;;;-1.95;nan
2401;BME280;1211;43.200;27.914;2023-03-20T12:55:40;98936.81;;;-1.67;nan
2401;BME280;1211;43.200;27.914;2023-03-20T12:58:13;98989.34;;;-1.40;nan
2401;BME280;1211;43.200;27.914;2023-03-20T13:00:44;98945.28;;;-2.16;nan
2401;BME280;1211;43.200;27.914;2023-03-20T13:03:18;99109.75;;;-1.63;nan
2401;BME280;1211;43.200;27.914;2023-03-20T13:05:49;98983.47;;;-2.85;nan
2401;BME280;1211;43.200;27.914;2023-03-20T13:08:24;99091.38;;;-1.85;nan
2401;BME280;1211;43.200;27.914;2023-03-20T13:10:57;98996.84;;;-2.22;nan
2401;BME280;1211;43.200;27.914;2023-03-20T13:13:29;98960.28;;;-1.86;nan
2401;BME280;1211;43.200;27.914;2023-03-20T13:16:01;98946.25;;;-2.07;nan
2401;BME280;1211;43.200;27.914;2023-03-20T13:18:36;98932.03;;;-2.12;nan
2401;BME280;1211;43.200;27.914;2023-03-20T13:21:07;98939.50;;;-2.52;nan
2401;BME280;1211;43.200;27.914;2023-03-20T13:23:38;98865.94;;;-3.23;nan
2401;BME280;1211;43.200;27.914;2023-03-20T13:26:10;98880.72;;;-2.97;nan
2401;BME280;1211;43.200;27.914;2023-03-20T13:28:44;98891.81;;;-2.75;nan
2401;BME280;1211;43.200;27.914;2023-03-20T13:31:24;98923.41;;;-2.57;nan
2401;BME280;1211;43.200;27.914;2023-03-20T13:33:55;98880.47;;;-2.72;nan
2401;BME280;1211;43.200;27.914;2023-03-20T13:38:56;98534.19;;;-4.95;nan
2401;BME280;1211;43.200;27.914;2023-03-20T13:41:24;98452.34;;;-5.27;nan
2401;BME280;1211;43.200;27.914;2023-03-20T13:43:53;98651.50;;;-4.28;nan
2401;BME280;1211;43.200;27.914;2023-03-20T13:46:23;98525.03;;;-5.28;nan
2401;BME280;1211;43.200;27.914;2023-03-20T13:48:51;98534.97;;;-5.29;nan
2401;BME280;1211;43.200;27.914;2023-03-20T13:51:21;98902.97;;;-3.15;nan
2401;BME280;1211;43.200;27.914;2023-03-20T13:53:55;98553.78;;;-4.66;nan
2401;BME280;1211;43.200;27.914;2023-03-20T13:56:33;98486.97;;;-5.69;nan
2401;BME280;1211;43.200;27.914;2023-03-20T13:59:14;97984.34;;;-8.50;nan
2401;BME280;1211;43.200;27.914;2023-03-20T14:01:47;98152.38;;;-7.45;nan
2401;BME280;1211;43.200;27.914;2023-03-20T14:04:16;98230.44;;;-6.94;nan
2401;BME280;1211;43.200;27.914;2023-03-20T14:06:49;98668.91;;;-4.26;nan
2401;BME280;1211;43.200;27.914;2023-03-20T14:12:03;98870.53;;;-2.76;nan
2401;BME280;1211;43.200;27.914;2023-03-20T14:14:30;98585.19;;;-5.01;nan
2401;BME280;1211;43.200;27.914;2023-03-20T14:17:02;98779.16;;;-3.68;nan
2401;BME280;1211;43.200;27.914;2023-03-20T14:19:33;98863.09;;;-2.84;nan
2401;BME280;1211;43.200;27.914;2023-03-20T14:22:01;98848.84;;;-2.85;nan
2401;BME280;1211;43.200;27.914;2023-03-20T14:24:27;98888.16;;;-3.13;nan
2401;BME280;1211;43.200;27.914;2023-03-20T14:26:55;98817.75;;;-3.54;nan
2401;BME280;1211;43.200;27.914;2023-03-20T14:29:34;98845.25;;;-3.04;nan
2401;BME280;1211;43.200;27.914;2023-03-20T14:32:02;98765.97;;;-3.64;nan
2401;BME280;1211;43.200;27.914;2023-03-20T14:34:42;97752.25;;;-10.28;nan
2401;BME280;1211;43.200;27.914;2023-03-20T14:37:25;98751.56;;;-4.12;nan
2401;BME280;1211;43.200;27.914;2023-03-20T14:39:52;98664.84;;;-4.52;nan
2401;BME280;1211;43.200;27.914;2023-03-20T14:42:28;98793.13;;;-3.66;nan
2401;BME280;1211;43.200;27.914;2023-03-20T14:45:13;98839.47;;;-3.16;nan
2401;BME280;1211;43.200;27.914;2023-03-20T14:47:44;98805.28;;;-3.74;nan
2401;BME280;1211;43.200;27.914;2023-03-20T14:50:16;98461.34;;;-5.86;nan
2401;BME280;1211;43.200;27.914;2023-03-20T14:52:48;98724.56;;;-4.26;nan
2401;BME280;1211;43.200;27.914;2023-03-20T14:55:29;98941.72;;;-2.82;nan
2401;BME280;1211;43.200;27.914;2023-03-20T14:57:56;98540.38;;;-5.34;nan
2401;BME280;1211;43.200;27.914;2023-03-20T15:00:25;98814.28;;;-3.88;nan
2401;BME280;1211;43.200;27.914;2023-03-20T15:02:57;98795.78;;;-3.95;nan